Time;durP1;ratioP1;P1;durP2;ratioP2;P2;SDS_P1;SDS_P2;PMS_P1;PMS_P2;Temp;Humidity;BMP_temperature;BMP_pressure;BME280_temperature;BME280_humidity;BME280_pressure;Samples;Min_cycle;Max_cycle;Signal;HPM_P1;HPM_P2
2021/06/09 00:00:06;;;;;;;7.43;4.40;;;;;;;;;;5065273;28;20556;-67
2021/06/09 00:02:32;;;;;;;7.78;4.85;;;;;;;;;;5065158;28;20432;-67
2021/06/09 00:04:58;;;;;;;7.93;4.60;;;;;;;;;;5066683;28;20834;-67
2021/06/09 00:07:24;;;;;;;8.23;4.70;;;;;;;;;;5067022;28;20401;-67
2021/06/09 00:09:50;;;;;;;8.10;4.85;;;;;;;;;;5067589;28;20389;-67
2021/06/09 00:12:16;;;;;;;7.22;4.60;;;;;;;;;;5063962;28;20416;-67
2021/06/09 00:14:42;;;;;;;6.68;4.57;;;;;;;;;;5066198;28;20518;-67
2021/06/09 00:17:08;;;;;;;6.10;4.57;;;;;;;;;;5063916;28;20406;-67
2021/06/09 00:19:34;;;;;;;6.30;5.00;;;;;;;;;;5064549;28;20482;-67
2021/06/09 00:22:00;;;;;;;7.97;4.40;;;;;;;;;;5059927;28;20849;-67
2021/06/09 00:24:26;;;;;;;8.10;4.47;;;;;;;;;;5063973;28;20407;-67
2021/06/09 00:26:52;;;;;;;6.53;4.55;;;;;;;;;;5065512;28;20395;-67
2021/06/09 00:29:19;;;;;;;7.83;4.50;;;;;;;;;;5066293;28;20849;-67
2021/06/09 00:31:46;;;;;;;7.53;4.43;;;;;;;;;;5062604;28;20589;-67
2021/06/09 00:34:12;;;;;;;7.00;4.25;;;;;;;;;;5064123;28;21306;-67
2021/06/09 00:36:39;;;;;;;7.53;4.40;;;;;;;;;;5045908;28;20514;-68
2021/06/09 00:39:05;;;;;;;10.00;4.38;;;;;;;;;;5043335;28;20546;-68
2021/06/09 00:41:32;;;;;;;8.15;4.97;;;;;;;;;;5042978;28;20393;-67
2021/06/09 00:43:58;;;;;;;7.45;4.43;;;;;;;;;;5043211;28;20408;-67
2021/06/09 00:46:30;;;;;;;8.07;4.50;;;;;;;;;;5044259;28;20518;-67
2021/06/09 00:48:56;;;;;;;7.25;4.50;;;;;;;;;;5043630;28;20433;-67
2021/06/09 00:51:22;;;;;;;6.78;4.28;;;;;;;;;;5043114;28;20483;-67
2021/06/09 00:53:54;;;;;;;8.65;4.10;;;;;;;;;;5041448;28;20831;-67
2021/06/09 00:56:22;;;;;;;8.03;4.40;;;;;;;;;;5041370;28;20401;-67
2021/06/09 00:58:49;;;;;;;6.93;4.30;;;;;;;;;;5043534;28;20747;-66
2021/06/09 01:01:17;;;;;;;9.35;4.32;;;;;;;;;;5042571;28;20408;-67
2021/06/09 01:03:43;;;;;;;7.75;4.70;;;;;;;;;;5044722;28;20389;-67
2021/06/09 01:06:09;;;;;;;8.20;4.40;;;;;;;;;;5039511;28;20405;-67
2021/06/09 01:08:39;;;;;;;8.05;4.45;;;;;;;;;;5046078;28;20393;-67
2021/06/09 01:11:06;;;;;;;7.13;4.30;;;;;;;;;;5041581;28;20393;-67
2021/06/09 01:13:33;;;;;;;6.10;4.20;;;;;;;;;;5044283;28;20426;-67
2021/06/09 01:15:59;;;;;;;5.88;4.10;;;;;;;;;;5040852;28;20449;-66
2021/06/09 01:18:25;;;;;;;6.75;4.78;;;;;;;;;;5038826;28;21079;-66
2021/06/09 01:20:52;;;;;;;6.53;4.53;;;;;;;;;;5044201;28;20715;-67
2021/06/09 01:23:18;;;;;;;7.32;4.80;;;;;;;;;;5042312;28;20483;-66
2021/06/09 01:25:45;;;;;;;6.90;4.80;;;;;;;;;;5043822;28;20462;-68
2021/06/09 01:28:11;;;;;;;10.18;4.90;;;;;;;;;;5042974;28;20410;-67
2021/06/09 01:30:37;;;;;;;6.57;4.18;;;;;;;;;;5045443;28;20401;-66
2021/06/09 01:33:07;;;;;;;6.82;3.95;;;;;;;;;;5041590;28;20427;-67
2021/06/09 01:35:33;;;;;;;6.70;4.53;;;;;;;;;;5045904;28;20478;-67
2021/06/09 01:37:59;;;;;;;7.13;4.70;;;;;;;;;;5044659;28;20411;-67
2021/06/09 01:40:26;;;;;;;5.47;4.15;;;;;;;;;;5042320;28;20847;-67
2021/06/09 01:42:52;;;;;;;8.20;4.70;;;;;;;;;;5042671;28;20433;-67
2021/06/09 01:45:20;;;;;;;6.10;4.35;;;;;;;;;;5043226;28;20401;-67
2021/06/09 01:47:46;;;;;;;7.13;4.40;;;;;;;;;;5044205;28;20477;-66
2021/06/09 01:50:13;;;;;;;7.30;4.63;;;;;;;;;;5045216;28;20877;-66
2021/06/09 01:52:39;;;;;;;5.53;4.10;;;;;;;;;;5048007;28;20393;-67
2021/06/09 01:55:07;;;;;;;6.03;4.65;;;;;;;;;;5048080;28;20467;-67
2021/06/09 01:57:33;;;;;;;7.68;4.60;;;;;;;;;;5049055;28;20696;-66
2021/06/09 01:59:59;;;;;;;6.18;4.60;;;;;;;;;;5047071;28;20397;-66
2021/06/09 02:02:25;;;;;;;8.27;5.15;;;;;;;;;;5046124;28;20915;-66
2021/06/09 02:04:51;;;;;;;8.45;5.32;;;;;;;;;;5045354;28;20405;-67
2021/06/09 02:07:17;;;;;;;7.77;5.10;;;;;;;;;;5048456;28;20399;-67
2021/06/09 02:09:44;;;;;;;7.95;5.38;;;;;;;;;;5048744;28;20405;-67
2021/06/09 02:12:10;;;;;;;7.70;5.75;;;;;;;;;;5047505;28;20886;-67
2021/06/09 02:14:36;;;;;;;9.13;5.93;;;;;;;;;;5046599;28;20467;-67
2021/06/09 02:17:04;;;;;;;7.20;5.25;;;;;;;;;;5045962;28;20864;-67
2021/06/09 02:19:30;;;;;;;8.50;5.87;;;;;;;;;;5045200;28;20504;-67
2021/06/09 02:21:57;;;;;;;7.03;5.45;;;;;;;;;;5046511;28;20404;-67
2021/06/09 02:24:23;;;;;;;7.00;5.30;;;;;;;;;;5047083;28;20401;-67
2021/06/09 02:26:50;;;;;;;7.70;6.28;;;;;;;;;;5047678;28;20426;-68
2021/06/09 02:29:16;;;;;;;8.32;6.18;;;;;;;;;;5046574;28;20397;-67
2021/06/09 02:31:50;;;;;;;9.00;6.13;;;;;;;;;;5045322;28;20401;-67
2021/06/09 02:34:20;;;;;;;9.52;6.50;;;;;;;;;;5049994;28;20977;-68
2021/06/09 02:36:48;;;;;;;7.50;5.90;;;;;;;;;;5062657;28;20412;-67
2021/06/09 02:39:14;;;;;;;9.87;6.20;;;;;;;;;;5064039;28;20392;-67
2021/06/09 02:41:41;;;;;;;8.27;6.05;;;;;;;;;;5063372;28;20488;-66
2021/06/09 02:44:07;;;;;;;7.85;6.13;;;;;;;;;;5067022;28;20400;-66
2021/06/09 02:46:52;;;;;;;8.23;5.78;;;;;;;;;;5067903;28;20424;-67
2021/06/09 02:49:20;;;;;;;8.30;6.18;;;;;;;;;;5058443;28;20421;-67
2021/06/09 02:51:51;;;;;;;9.48;6.38;;;;;;;;;;5059623;28;20403;-66
2021/06/09 02:54:19;;;;;;;8.48;6.18;;;;;;;;;;5062106;28;20414;-68
2021/06/09 02:56:49;;;;;;;8.13;6.60;;;;;;;;;;5066044;28;20699;-67
2021/06/09 02:59:30;;;;;;;7.95;6.20;;;;;;;;;;5064045;28;20901;-67
2021/06/09 03:02:28;;;;;;;9.35;6.78;;;;;;;;;;5065855;28;20496;-66
2021/06/09 03:04:57;;;;;;;8.83;6.57;;;;;;;;;;5034762;28;20411;-66
2021/06/09 03:07:32;;;;;;;8.45;6.00;;;;;;;;;;5062238;28;20466;-66
2021/06/09 03:10:07;;;;;;;7.53;5.75;;;;;;;;;;5066536;28;20451;-66
2021/06/09 03:12:45;;;;;;;7.20;5.97;;;;;;;;;;5064110;28;20900;-66
2021/06/09 03:15:13;;;;;;;8.07;6.35;;;;;;;;;;5063808;28;20756;-66
2021/06/09 03:17:43;;;;;;;7.53;5.78;;;;;;;;;;5064328;28;20397;-67
2021/06/09 03:20:28;;;;;;;8.73;6.57;;;;;;;;;;5066166;28;20412;-66
2021/06/09 03:23:10;;;;;;;9.00;6.80;;;;;;;;;;5064637;28;20399;-66
2021/06/09 03:25:39;;;;;;;8.32;6.65;;;;;;;;;;5065287;28;20399;-66
2021/06/09 03:28:16;;;;;;;7.65;6.22;;;;;;;;;;5061775;28;20400;-67
2021/06/09 03:30:44;;;;;;;8.27;6.67;;;;;;;;;;5066014;28;20867;-66
2021/06/09 03:33:12;;;;;;;8.32;6.75;;;;;;;;;;5062774;28;20555;-66
2021/06/09 03:35:45;;;;;;;10.82;7.38;;;;;;;;;;5062804;28;20506;-67
2021/06/09 03:38:32;;;;;;;8.80;7.20;;;;;;;;;;5064269;28;20404;-66
2021/06/09 03:40:59;;;;;;;9.23;7.30;;;;;;;;;;5064451;28;20402;-66
2021/06/09 03:43:27;;;;;;;10.25;7.60;;;;;;;;;;5061820;28;20468;-66
2021/06/09 03:45:54;;;;;;;8.57;6.90;;;;;;;;;;5066612;28;20399;-67
2021/06/09 03:48:24;;;;;;;9.07;7.03;;;;;;;;;;5060292;28;20478;-66
2021/06/09 03:50:51;;;;;;;9.35;6.50;;;;;;;;;;5062573;28;20395;-66
2021/06/09 03:53:18;;;;;;;8.38;6.70;;;;;;;;;;5061719;28;20420;-66
2021/06/09 03:55:45;;;;;;;9.90;6.93;;;;;;;;;;5064452;28;20853;-66
2021/06/09 03:58:12;;;;;;;8.57;6.78;;;;;;;;;;5061310;28;20413;-66
2021/06/09 04:00:38;;;;;;;8.77;6.13;;;;;;;;;;5060807;28;20397;-67
2021/06/09 04:03:05;;;;;;;8.07;6.23;;;;;;;;;;5064958;28;20407;-67
2021/06/09 04:05:32;;;;;;;7.67;6.00;;;;;;;;;;5062537;28;20695;-67
2021/06/09 04:07:59;;;;;;;7.15;5.90;;;;;;;;;;5062069;28;21259;-67
2021/06/09 04:10:25;;;;;;;8.38;5.97;;;;;;;;;;5065927;28;20393;-66
2021/06/09 04:12:52;;;;;;;9.75;6.07;;;;;;;;;;5060172;28;20401;-66
2021/06/09 04:15:19;;;;;;;7.80;5.88;;;;;;;;;;5063214;28;20396;-67
2021/06/09 04:17:46;;;;;;;10.27;6.93;;;;;;;;;;5060095;28;20527;-66
2021/06/09 04:20:12;;;;;;;10.20;6.85;;;;;;;;;;5065242;28;20398;-66
2021/06/09 04:22:38;;;;;;;7.38;6.00;;;;;;;;;;5063458;28;20780;-66
2021/06/09 04:25:07;;;;;;;8.40;6.53;;;;;;;;;;5062908;28;20403;-66
2021/06/09 04:27:35;;;;;;;8.80;6.50;;;;;;;;;;5060109;28;20893;-66
2021/06/09 04:30:02;;;;;;;8.55;6.70;;;;;;;;;;5059948;28;20872;-66
2021/06/09 04:32:28;;;;;;;8.57;6.83;;;;;;;;;;5063839;28;20403;-66
2021/06/09 04:34:57;;;;;;;10.40;6.97;;;;;;;;;;5061182;28;20523;-66
2021/06/09 04:37:24;;;;;;;10.00;8.35;;;;;;;;;;5064962;28;20404;-66
2021/06/09 04:39:51;;;;;;;9.70;8.00;;;;;;;;;;5059383;28;20399;-66
2021/06/09 04:42:18;;;;;;;10.38;8.60;;;;;;;;;;5059517;28;21122;-66
2021/06/09 04:44:44;;;;;;;10.52;8.50;;;;;;;;;;5060501;28;20486;-66
2021/06/09 04:47:11;;;;;;;11.23;8.90;;;;;;;;;;5058255;28;20450;-66
2021/06/09 04:49:38;;;;;;;12.07;9.70;;;;;;;;;;5062325;28;20923;-67
2021/06/09 04:52:05;;;;;;;10.63;8.77;;;;;;;;;;5062316;28;20463;-67
2021/06/09 04:54:31;;;;;;;11.25;9.55;;;;;;;;;;5063060;28;20465;-66
2021/06/09 04:56:57;;;;;;;11.30;8.88;;;;;;;;;;5064388;28;20493;-66
2021/06/09 04:59:23;;;;;;;11.18;9.20;;;;;;;;;;5060706;28;20407;-66
2021/06/09 05:01:49;;;;;;;10.05;8.55;;;;;;;;;;5061335;28;20475;-67
2021/06/09 05:04:15;;;;;;;10.55;8.43;;;;;;;;;;5058161;28;20919;-66
2021/06/09 05:06:41;;;;;;;9.70;8.05;;;;;;;;;;5061344;28;20480;-68
2021/06/09 05:09:08;;;;;;;9.50;7.90;;;;;;;;;;5063615;28;20411;-67
2021/06/09 05:11:43;;;;;;;8.83;7.00;;;;;;;;;;5062517;28;20507;-66
2021/06/09 05:14:31;;;;;;;8.52;6.97;;;;;;;;;;5059548;28;20424;-67
2021/06/09 05:16:59;;;;;;;8.15;6.45;;;;;;;;;;5055921;28;20411;-66
2021/06/09 05:19:27;;;;;;;8.47;6.63;;;;;;;;;;5066773;28;20442;-66
2021/06/09 05:21:55;;;;;;;7.72;6.55;;;;;;;;;;5062082;28;20906;-67
2021/06/09 05:24:25;;;;;;;7.57;5.57;;;;;;;;;;5062666;28;20403;-66
2021/06/09 05:26:52;;;;;;;7.80;6.10;;;;;;;;;;5065190;28;20403;-66
2021/06/09 05:29:18;;;;;;;7.20;6.00;;;;;;;;;;5060484;28;20935;-67
2021/06/09 05:31:46;;;;;;;9.23;6.30;;;;;;;;;;5064692;28;20530;-66
2021/06/09 05:34:12;;;;;;;7.32;5.97;;;;;;;;;;5069835;28;20422;-66
2021/06/09 05:36:39;;;;;;;7.88;6.45;;;;;;;;;;5066544;28;20404;-66
2021/06/09 05:39:05;;;;;;;8.80;7.25;;;;;;;;;;5064500;28;20397;-66
2021/06/09 05:41:31;;;;;;;8.68;7.78;;;;;;;;;;5068021;28;20403;-67
2021/06/09 05:43:57;;;;;;;9.10;7.05;;;;;;;;;;5066602;28;20734;-66
2021/06/09 05:46:27;;;;;;;9.40;8.10;;;;;;;;;;5068009;28;20427;-66
2021/06/09 05:48:53;;;;;;;10.57;8.93;;;;;;;;;;5064664;28;20442;-67
2021/06/09 05:51:19;;;;;;;8.60;6.68;;;;;;;;;;5068683;28;20427;-66
2021/06/09 05:53:45;;;;;;;9.50;7.80;;;;;;;;;;5066440;28;20484;-66
2021/06/09 05:56:11;;;;;;;8.77;7.05;;;;;;;;;;5069386;28;20412;-67
2021/06/09 05:58:40;;;;;;;9.90;8.30;;;;;;;;;;5063321;28;20427;-67
2021/06/09 06:01:08;;;;;;;10.07;8.60;;;;;;;;;;5061796;28;20474;-66
2021/06/09 06:03:34;;;;;;;9.50;8.32;;;;;;;;;;5052748;28;20400;-67
2021/06/09 06:06:02;;;;;;;10.55;8.57;;;;;;;;;;5067292;28;20438;-66
2021/06/09 06:08:29;;;;;;;9.68;8.68;;;;;;;;;;5063074;28;20401;-67
2021/06/09 06:10:56;;;;;;;9.18;8.15;;;;;;;;;;5065394;28;20882;-67
2021/06/09 06:13:25;;;;;;;10.05;8.73;;;;;;;;;;5064405;28;20524;-67
2021/06/09 06:15:54;;;;;;;11.00;9.00;;;;;;;;;;5065254;28;20711;-66
2021/06/09 06:18:34;;;;;;;12.48;9.48;;;;;;;;;;5064031;28;20404;-66
2021/06/09 06:21:01;;;;;;;16.80;14.45;;;;;;;;;;5065069;28;20421;-66
2021/06/09 06:23:27;;;;;;;20.08;15.90;;;;;;;;;;5061234;28;20798;-67
2021/06/09 06:25:55;;;;;;;22.60;17.65;;;;;;;;;;5063745;28;20708;-66
2021/06/09 06:28:22;;;;;;;16.83;13.60;;;;;;;;;;5064440;28;20387;-67
2021/06/09 06:30:48;;;;;;;19.52;15.57;;;;;;;;;;5068715;28;20414;-67
2021/06/09 06:33:15;;;;;;;18.48;16.30;;;;;;;;;;5058998;28;20484;-66
2021/06/09 06:35:41;;;;;;;18.83;16.75;;;;;;;;;;5069488;28;20909;-66
2021/06/09 06:38:07;;;;;;;20.85;17.83;;;;;;;;;;5062051;28;20567;-66
2021/06/09 06:40:35;;;;;;;19.05;17.15;;;;;;;;;;5062132;28;20403;-67
2021/06/09 06:43:01;;;;;;;23.02;20.52;;;;;;;;;;5061063;28;20397;-66
2021/06/09 06:45:27;;;;;;;27.85;24.05;;;;;;;;;;5065782;28;20410;-67
2021/06/09 06:47:54;;;;;;;23.20;20.80;;;;;;;;;;5065531;28;20483;-66
2021/06/09 06:50:20;;;;;;;23.63;21.15;;;;;;;;;;5068875;28;20446;-66
2021/06/09 06:52:46;;;;;;;23.93;21.33;;;;;;;;;;5063085;28;20433;-66
2021/06/09 06:55:13;;;;;;;25.95;23.15;;;;;;;;;;5049662;28;20734;-67
2021/06/09 06:57:39;;;;;;;26.52;23.77;;;;;;;;;;5068907;28;20776;-67
2021/06/09 07:00:10;;;;;;;27.07;24.10;;;;;;;;;;5065070;28;20399;-66
2021/06/09 07:02:36;;;;;;;25.90;23.30;;;;;;;;;;5066029;28;20885;-68
2021/06/09 07:05:04;;;;;;;25.27;22.75;;;;;;;;;;5065366;28;20387;-68
2021/06/09 07:07:30;;;;;;;23.48;20.98;;;;;;;;;;5067366;28;20395;-67
2021/06/09 07:09:57;;;;;;;24.17;20.92;;;;;;;;;;5067610;28;20405;-67
2021/06/09 07:12:23;;;;;;;24.08;21.23;;;;;;;;;;5067116;28;20396;-67
2021/06/09 07:14:51;;;;;;;22.67;20.27;;;;;;;;;;5072385;28;20422;-69
2021/06/09 07:17:20;;;;;;;25.00;22.50;;;;;;;;;;5067300;28;20463;-68
2021/06/09 07:19:47;;;;;;;23.90;21.40;;;;;;;;;;5071326;28;20398;-69
2021/06/09 07:22:13;;;;;;;22.13;19.83;;;;;;;;;;5061106;28;20438;-67
2021/06/09 07:24:39;;;;;;;22.60;20.30;;;;;;;;;;5066314;28;20415;-69
2021/06/09 07:27:06;;;;;;;23.88;21.58;;;;;;;;;;5068764;28;20387;-69
2021/06/09 07:29:34;;;;;;;23.80;21.38;;;;;;;;;;5064078;28;20970;-68
2021/06/09 07:32:01;;;;;;;23.33;20.92;;;;;;;;;;5065719;28;20640;-68
2021/06/09 07:34:28;;;;;;;22.23;19.93;;;;;;;;;;5071620;28;20942;-69
2021/06/09 07:36:59;;;;;;;22.25;19.95;;;;;;;;;;5065598;28;20422;-69
2021/06/09 07:39:45;;;;;;;21.00;18.15;;;;;;;;;;5061523;28;20483;-69
2021/06/09 07:42:13;;;;;;;21.88;19.58;;;;;;;;;;5065711;28;20691;-69
2021/06/09 07:44:42;;;;;;;20.35;17.10;;;;;;;;;;5074007;28;20419;-69
2021/06/09 07:47:10;;;;;;;20.33;18.27;;;;;;;;;;5069171;28;20455;-68
2021/06/09 07:49:37;;;;;;;20.17;18.15;;;;;;;;;;5062558;28;20445;-69
2021/06/09 07:52:04;;;;;;;19.80;17.80;;;;;;;;;;5057628;28;20393;-69
2021/06/09 07:54:31;;;;;;;19.52;17.52;;;;;;;;;;5069774;28;20529;-68
2021/06/09 07:57:00;;;;;;;18.77;16.77;;;;;;;;;;5050336;28;20404;-68
2021/06/09 07:59:26;;;;;;;17.63;15.93;;;;;;;;;;5067351;28;20391;-69
2021/06/09 08:01:53;;;;;;;21.58;19.35;;;;;;;;;;5075046;28;20603;-67
2021/06/09 08:04:19;;;;;;;20.25;18.17;;;;;;;;;;5069843;28;20407;-67
2021/06/09 08:06:45;;;;;;;20.00;17.95;;;;;;;;;;5065523;28;20399;-67
2021/06/09 08:09:15;;;;;;;19.75;17.85;;;;;;;;;;5062121;28;20422;-67
2021/06/09 08:11:41;;;;;;;18.80;16.93;;;;;;;;;;5064820;28;20391;-67
2021/06/09 08:14:08;;;;;;;17.90;15.27;;;;;;;;;;5068143;28;20430;-67
2021/06/09 08:16:35;;;;;;;20.08;14.88;;;;;;;;;;5064565;28;20787;-67
2021/06/09 08:19:05;;;;;;;17.98;15.73;;;;;;;;;;5067939;28;20887;-68
2021/06/09 08:21:31;;;;;;;16.98;15.18;;;;;;;;;;5069048;28;20457;-68
2021/06/09 08:23:57;;;;;;;15.43;13.85;;;;;;;;;;5067381;28;20395;-68
2021/06/09 08:26:24;;;;;;;16.80;15.02;;;;;;;;;;5052671;28;20959;-68
2021/06/09 08:28:51;;;;;;;16.07;14.37;;;;;;;;;;5072139;28;20506;-68
2021/06/09 08:31:21;;;;;;;14.02;12.60;;;;;;;;;;5067040;28;20443;-67
2021/06/09 08:33:48;;;;;;;15.80;13.77;;;;;;;;;;5062740;28;20515;-69
2021/06/09 08:36:15;;;;;;;14.20;12.65;;;;;;;;;;5067139;28;20431;-67
2021/06/09 08:38:43;;;;;;;14.45;12.70;;;;;;;;;;5060799;28;20502;-67
2021/06/09 08:41:10;;;;;;;16.50;14.55;;;;;;;;;;5063313;28;20468;-67
2021/06/09 08:43:40;;;;;;;17.20;14.80;;;;;;;;;;5070474;28;20744;-67
2021/06/09 08:46:07;;;;;;;16.13;14.43;;;;;;;;;;5070419;28;20479;-67
2021/06/09 08:48:37;;;;;;;15.33;12.80;;;;;;;;;;5066973;28;20484;-68
2021/06/09 08:51:07;;;;;;;16.07;12.90;;;;;;;;;;5063798;28;20482;-67
2021/06/09 08:53:34;;;;;;;15.40;12.70;;;;;;;;;;5056804;28;20413;-67
2021/06/09 08:56:00;;;;;;;17.77;15.87;;;;;;;;;;5056890;28;20854;-68
2021/06/09 08:58:27;;;;;;;16.20;14.50;;;;;;;;;;5061636;28;20450;-67
2021/06/09 09:00:53;;;;;;;15.68;13.52;;;;;;;;;;5063246;28;20404;-67
2021/06/09 09:03:19;;;;;;;14.77;12.93;;;;;;;;;;5068764;28;20388;-68
2021/06/09 09:05:45;;;;;;;19.30;17.33;;;;;;;;;;5057611;28;20907;-68
2021/06/09 09:08:11;;;;;;;19.05;14.25;;;;;;;;;;5064119;28;20443;-68
2021/06/09 09:10:37;;;;;;;18.00;14.82;;;;;;;;;;5056603;28;20460;-67
2021/06/09 09:13:05;;;;;;;15.60;13.90;;;;;;;;;;5065683;28;20443;-67
2021/06/09 09:15:31;;;;;;;19.17;14.90;;;;;;;;;;5058987;28;20773;-67
2021/06/09 09:18:01;;;;;;;15.57;13.98;;;;;;;;;;5066902;28;20408;-67
2021/06/09 09:20:34;;;;;;;17.45;13.38;;;;;;;;;;5064281;28;20435;-67
2021/06/09 09:23:01;;;;;;;15.80;12.68;;;;;;;;;;5063805;28;20399;-69
2021/06/09 09:25:28;;;;;;;14.15;12.23;;;;;;;;;;5061999;28;20432;-68
2021/06/09 09:27:57;;;;;;;11.77;10.43;;;;;;;;;;5064752;28;20408;-67
2021/06/09 09:30:25;;;;;;;14.23;11.50;;;;;;;;;;5061255;28;20410;-69
2021/06/09 09:32:57;;;;;;;15.57;11.40;;;;;;;;;;5066114;28;20731;-67
2021/06/09 09:35:26;;;;;;;12.33;11.03;;;;;;;;;;5056214;28;20420;-67
2021/06/09 09:38:08;;;;;;;15.45;12.77;;;;;;;;;;5059029;28;20550;-68
2021/06/09 09:40:36;;;;;;;14.15;11.65;;;;;;;;;;5061859;28;21062;-67
2021/06/09 09:43:02;;;;;;;13.83;10.97;;;;;;;;;;5063064;28;20396;-67
2021/06/09 09:45:29;;;;;;;13.15;10.73;;;;;;;;;;5059049;28;20518;-67
2021/06/09 09:48:16;;;;;;;13.13;10.32;;;;;;;;;;5058346;28;20480;-67
2021/06/09 09:50:52;;;;;;;12.65;8.55;;;;;;;;;;5060148;28;20404;-68
2021/06/09 09:53:23;;;;;;;11.00;9.43;;;;;;;;;;5059663;28;20427;-67
2021/06/09 09:55:58;;;;;;;14.30;9.70;;;;;;;;;;5055583;28;20401;-68
2021/06/09 09:58:26;;;;;;;10.30;8.90;;;;;;;;;;5053476;28;20413;-67
2021/06/09 10:00:54;;;;;;;17.85;12.30;;;;;;;;;;5064265;28;20380;-68
2021/06/09 10:03:20;;;;;;;15.48;12.85;;;;;;;;;;5061395;28;20412;-68
2021/06/09 10:05:47;;;;;;;14.73;12.07;;;;;;;;;;5065487;28;20414;-67
2021/06/09 10:08:13;;;;;;;13.73;12.07;;;;;;;;;;5062770;28;20387;-68
2021/06/09 10:10:40;;;;;;;17.85;15.60;;;;;;;;;;5065322;28;20944;-68
2021/06/09 10:13:16;;;;;;;14.90;12.93;;;;;;;;;;5063194;28;20508;-67
2021/06/09 10:15:52;;;;;;;16.70;15.00;;;;;;;;;;5064042;28;20395;-68
2021/06/09 10:18:19;;;;;;;16.90;15.10;;;;;;;;;;5062968;28;20399;-68
2021/06/09 10:20:49;;;;;;;17.98;16.02;;;;;;;;;;5064664;28;20460;-69
2021/06/09 10:23:31;;;;;;;17.92;16.13;;;;;;;;;;5064952;28;20413;-70
2021/06/09 10:26:07;;;;;;;17.70;15.83;;;;;;;;;;5057877;28;20551;-67
2021/06/09 10:28:53;;;;;;;19.05;16.30;;;;;;;;;;5065081;28;20493;-67
2021/06/09 10:31:19;;;;;;;16.48;14.60;;;;;;;;;;5065818;28;20472;-67
2021/06/09 10:33:45;;;;;;;15.90;14.20;;;;;;;;;;5067192;28;20423;-67
2021/06/09 10:36:12;;;;;;;16.83;15.05;;;;;;;;;;5065724;28;20412;-67
2021/06/09 10:38:38;;;;;;;15.80;13.82;;;;;;;;;;5064447;28;20464;-67
2021/06/09 10:41:04;;;;;;;15.73;14.07;;;;;;;;;;5065346;28;20399;-67
2021/06/09 10:43:31;;;;;;;14.32;11.85;;;;;;;;;;5064259;28;20387;-66
2021/06/09 10:45:57;;;;;;;15.10;12.60;;;;;;;;;;5067676;28;20396;-68
2021/06/09 10:48:25;;;;;;;15.15;13.25;;;;;;;;;;5060676;28;20403;-67
2021/06/09 10:50:53;;;;;;;21.00;17.25;;;;;;;;;;5061463;28;20991;-67
2021/06/09 10:53:20;;;;;;;17.95;16.15;;;;;;;;;;5068182;28;20479;-67
2021/06/09 10:55:46;;;;;;;15.55;13.95;;;;;;;;;;5062860;28;20787;-67
2021/06/09 10:58:13;;;;;;;15.00;13.20;;;;;;;;;;5066605;28;20395;-67
2021/06/09 11:00:40;;;;;;;18.67;15.95;;;;;;;;;;5065574;28;20427;-67
2021/06/09 11:03:06;;;;;;;16.80;15.07;;;;;;;;;;5067042;28;20422;-66
2021/06/09 11:05:35;;;;;;;19.60;15.52;;;;;;;;;;5063094;28;20383;-67
2021/06/09 11:08:05;;;;;;;15.63;14.02;;;;;;;;;;5060902;28;20401;-68
2021/06/09 11:10:31;;;;;;;17.13;14.48;;;;;;;;;;5069829;28;20936;-67
2021/06/09 11:12:57;;;;;;;18.67;15.15;;;;;;;;;;5061990;28;20408;-67
2021/06/09 11:15:30;;;;;;;17.80;15.00;;;;;;;;;;5062046;28;20384;-67
2021/06/09 11:17:57;;;;;;;16.48;14.70;;;;;;;;;;5067349;28;20403;-67
2021/06/09 11:20:32;;;;;;;17.08;15.27;;;;;;;;;;5062187;28;20396;-67
2021/06/09 11:22:59;;;;;;;16.08;12.80;;;;;;;;;;5065788;28;20415;-67
2021/06/09 11:25:25;;;;;;;16.92;13.82;;;;;;;;;;5047191;28;20880;-67
2021/06/09 11:28:00;;;;;;;16.35;13.02;;;;;;;;;;5064712;28;20829;-68
2021/06/09 11:30:27;;;;;;;15.15;13.55;;;;;;;;;;5066672;28;20891;-67
2021/06/09 11:32:54;;;;;;;14.32;12.80;;;;;;;;;;5066481;28;20446;-67
2021/06/09 11:35:39;;;;;;;12.57;10.50;;;;;;;;;;5059261;28;20511;-67
2021/06/09 11:38:12;;;;;;;12.90;9.07;;;;;;;;;;5065541;28;20408;-67
2021/06/09 11:40:49;;;;;;;12.57;10.68;;;;;;;;;;5060241;28;20512;-68
2021/06/09 11:43:16;;;;;;;14.68;10.80;;;;;;;;;;5064700;28;21006;-67
2021/06/09 11:45:50;;;;;;;13.65;10.25;;;;;;;;;;5059180;28;20401;-69
2021/06/09 11:48:20;;;;;;;12.85;8.45;;;;;;;;;;5057093;28;20442;-67
2021/06/09 11:50:46;;;;;;;12.98;8.70;;;;;;;;;;5065725;28;20444;-67
2021/06/09 11:53:13;;;;;;;10.43;8.40;;;;;;;;;;5065898;28;20576;-67
2021/06/09 11:55:39;;;;;;;11.95;7.80;;;;;;;;;;5064752;28;20566;-67
2021/06/09 11:58:09;;;;;;;15.50;12.07;;;;;;;;;;5067745;28;20425;-67
2021/06/09 12:00:55;;;;;;;15.05;12.43;;;;;;;;;;5069110;28;20418;-67
2021/06/09 12:03:21;;;;;;;14.70;13.20;;;;;;;;;;5059369;28;20407;-67
2021/06/09 12:05:48;;;;;;;13.20;10.37;;;;;;;;;;5059293;28;21218;-68
2021/06/09 12:08:16;;;;;;;13.02;10.20;;;;;;;;;;5064382;28;20403;-67
2021/06/09 12:10:42;;;;;;;13.07;10.77;;;;;;;;;;5063709;28;20431;-67
2021/06/09 12:13:08;;;;;;;14.70;11.73;;;;;;;;;;5060816;28;20403;-68
2021/06/09 12:15:34;;;;;;;13.13;10.80;;;;;;;;;;5064451;28;20406;-67
2021/06/09 12:17:59;;;;;;;12.73;11.27;;;;;;;;;;5063977;28;20409;-67
2021/06/09 12:20:25;;;;;;;14.32;12.75;;;;;;;;;;5065940;28;20399;-67
2021/06/09 12:22:53;;;;;;;13.93;10.27;;;;;;;;;;5061769;28;20422;-68
2021/06/09 12:25:26;;;;;;;15.68;13.60;;;;;;;;;;5063791;28;20537;-68
2021/06/09 12:28:20;;;;;;;13.07;11.20;;;;;;;;;;5060482;28;20403;-66
2021/06/09 12:30:52;;;;;;;12.85;11.13;;;;;;;;;;5061436;28;20398;-67
2021/06/09 12:33:18;;;;;;;13.02;11.63;;;;;;;;;;5063658;28;20428;-67
2021/06/09 12:35:44;;;;;;;14.00;10.02;;;;;;;;;;5063994;28;20415;-68
2021/06/09 12:38:11;;;;;;;11.85;10.65;;;;;;;;;;5062293;28;20400;-68
2021/06/09 12:40:39;;;;;;;16.53;13.40;;;;;;;;;;5062514;28;20438;-67
2021/06/09 12:43:12;;;;;;;17.63;15.82;;;;;;;;;;5064817;28;20939;-69
2021/06/09 12:45:39;;;;;;;17.25;14.07;;;;;;;;;;5065032;28;20419;-68
2021/06/09 12:48:06;;;;;;;16.25;13.07;;;;;;;;;;5062715;28;20401;-67
2021/06/09 12:50:37;;;;;;;16.85;13.93;;;;;;;;;;5065892;28;20409;-68
2021/06/09 12:53:08;;;;;;;15.57;13.90;;;;;;;;;;5066439;28;20437;-67
2021/06/09 12:55:38;;;;;;;15.45;13.23;;;;;;;;;;5062977;28;20414;-68
2021/06/09 12:58:10;;;;;;;16.92;12.75;;;;;;;;;;5062803;28;20400;-67
2021/06/09 13:00:43;;;;;;;15.00;13.43;;;;;;;;;;5060611;28;20483;-68
2021/06/09 13:03:14;;;;;;;16.38;12.15;;;;;;;;;;5060088;28;20463;-68
2021/06/09 13:05:41;;;;;;;12.63;9.88;;;;;;;;;;5062709;28;20839;-67
2021/06/09 13:08:12;;;;;;;11.18;8.05;;;;;;;;;;5060817;28;20395;-69
2021/06/09 13:10:38;;;;;;;14.07;9.50;;;;;;;;;;5064518;28;20410;-67
2021/06/09 13:13:06;;;;;;;13.52;11.20;;;;;;;;;;5067653;28;20395;-67
2021/06/09 13:15:32;;;;;;;11.38;9.75;;;;;;;;;;5067855;28;20395;-67
2021/06/09 13:17:59;;;;;;;12.23;8.52;;;;;;;;;;5062044;28;20388;-66
2021/06/09 13:20:28;;;;;;;14.25;12.45;;;;;;;;;;5062693;28;20415;-67
2021/06/09 13:22:54;;;;;;;13.73;11.60;;;;;;;;;;5064413;28;20393;-67
2021/06/09 13:25:23;;;;;;;10.90;9.70;;;;;;;;;;5073830;28;20393;-67
2021/06/09 13:27:56;;;;;;;14.07;10.32;;;;;;;;;;5060681;28;20490;-67
2021/06/09 13:30:22;;;;;;;12.07;10.87;;;;;;;;;;5065621;28;20458;-67
2021/06/09 13:32:49;;;;;;;13.07;10.48;;;;;;;;;;5063165;28;20522;-67
2021/06/09 13:35:23;;;;;;;16.75;10.98;;;;;;;;;;5067562;28;20414;-67
2021/06/09 13:37:56;;;;;;;13.95;11.25;;;;;;;;;;5041811;28;20977;-66
2021/06/09 13:40:24;;;;;;;12.80;11.32;;;;;;;;;;5046595;28;20430;-67
2021/06/09 13:43:11;;;;;;;11.45;10.23;;;;;;;;;;5041968;28;20490;-66
2021/06/09 13:45:38;;;;;;;11.45;9.13;;;;;;;;;;5050504;28;20864;-67
2021/06/09 13:48:07;;;;;;;9.98;7.20;;;;;;;;;;5047041;28;20411;-67
2021/06/09 13:50:33;;;;;;;11.57;9.30;;;;;;;;;;5047089;28;20792;-66
2021/06/09 13:53:01;;;;;;;9.57;8.48;;;;;;;;;;5052329;28;20392;-67
2021/06/09 13:55:27;;;;;;;10.68;6.72;;;;;;;;;;5050105;28;20445;-67
2021/06/09 13:57:54;;;;;;;10.50;7.95;;;;;;;;;;5051374;28;20393;-66
2021/06/09 14:00:22;;;;;;;11.07;7.95;;;;;;;;;;5050932;28;20429;-67
2021/06/09 14:02:48;;;;;;;11.20;8.83;;;;;;;;;;5048298;28;20490;-67
2021/06/09 14:05:21;;;;;;;10.10;8.07;;;;;;;;;;5050179;28;20459;-67
2021/06/09 14:07:54;;;;;;;9.25;7.22;;;;;;;;;;5048945;28;20399;-67
2021/06/09 14:10:31;;;;;;;9.73;7.90;;;;;;;;;;5046229;28;20442;-67
2021/06/09 14:12:57;;;;;;;9.45;6.57;;;;;;;;;;5042729;28;20441;-67
2021/06/09 14:15:25;;;;;;;10.20;7.78;;;;;;;;;;5052099;28;20526;-67
2021/06/09 14:17:53;;;;;;;9.32;7.80;;;;;;;;;;5048415;28;20435;-67
2021/06/09 14:20:21;;;;;;;8.55;6.05;;;;;;;;;;5044238;28;20451;-68
2021/06/09 14:22:49;;;;;;;6.80;5.20;;;;;;;;;;5031191;28;20816;-67
2021/06/09 14:25:20;;;;;;;10.18;7.32;;;;;;;;;;5053200;28;20399;-67
2021/06/09 14:28:06;;;;;;;13.73;8.75;;;;;;;;;;5058535;28;20410;-67
2021/06/09 14:30:33;;;;;;;12.30;9.55;;;;;;;;;;5044537;28;20395;-67
2021/06/09 14:33:09;;;;;;;11.27;7.82;;;;;;;;;;5046877;28;20405;-67
2021/06/09 14:35:47;;;;;;;11.57;10.32;;;;;;;;;;5046518;28;20863;-68